Time;durP1;ratioP1;P1;durP2;ratioP2;P2;SDS_P1;SDS_P2;PMS_P1;PMS_P2;Temp;Humidity;BMP_temperature;BMP_pressure;BME280_temperature;BME280_humidity;BME280_pressure;Samples;Min_cycle;Max_cycle;Signal;HPM_P1;HPM_P2
2022/11/17 00:05:01;;;;;;;11.20;7.67;;;;;;;12.33;51.97;97881.03;10498340;28;20259;-71
2022/11/17 00:10:03;;;;;;;8.00;5.40;;;;;;;13.08;50.31;97841.41;10484921;28;20239;-72
2022/11/17 00:15:05;;;;;;;8.83;4.63;;;;;;;12.80;50.54;97858.47;10486352;28;20696;-74
2022/11/17 00:25:30;;;;;;;8.03;3.40;;;;;;;12.92;50.31;97819.75;10486604;28;20238;-73
2022/11/17 00:35:53;;;;;;;4.80;3.57;;;;;;;12.50;50.83;97830.09;10489375;28;20231;-74
2022/11/17 00:47:11;;;;;;;7.50;4.57;;;;;;;13.09;50.37;97733.78;10492137;28;20235;-72
2022/11/17 00:52:13;;;;;;;5.93;3.97;;;;;;;12.58;50.96;97775.22;10497163;28;20239;-71
2022/11/17 00:57:14;;;;;;;3.80;2.93;;;;;;;12.73;50.88;97770.06;10493298;28;20242;-74
2022/11/17 01:02:16;;;;;;;6.70;3.23;;;;;;;11.88;52.82;97758.56;10490923;28;20227;-72
2022/11/17 01:07:17;;;;;;;3.67;2.70;;;;;;;11.67;52.19;97747.50;10474200;28;20239;-72
2022/11/17 01:12:19;;;;;;;4.80;3.20;;;;;;;11.97;52.85;97759.78;10492862;28;20341;-72
2022/11/17 01:17:21;;;;;;;5.60;3.23;;;;;;;12.43;52.17;97706.06;10491462;28;20239;-75
2022/11/17 01:22:22;;;;;;;3.30;2.73;;;;;;;11.55;53.52;97707.34;10495388;28;20230;-72
2022/11/17 01:27:24;;;;;;;4.80;2.87;;;;;;;12.31;52.05;97687.38;10469369;28;20250;-73
2022/11/17 01:32:26;;;;;;;2.80;2.60;;;;;;;12.48;51.19;97663.22;10486473;28;20223;-72
2022/11/17 01:37:27;;;;;;;5.43;3.10;;;;;;;12.70;51.40;97660.56;10488873;28;20238;-75
2022/11/17 01:42:29;;;;;;;3.67;3.17;;;;;;;12.14;52.31;97693.56;10486626;28;20884;-72
2022/11/17 01:47:57;;;;;;;6.03;3.53;;;;;;;12.85;51.02;97638.44;10512580;28;20242;-74
2022/11/17 01:53:03;;;;;;;5.60;2.80;;;;;;;12.66;51.23;97640.66;10507538;28;20219;-72
2022/11/17 01:58:10;;;;;;;4.67;3.10;;;;;;;12.49;51.80;97651.44;10487992;28;20288;-74
2022/11/17 02:03:12;;;;;;;3.10;2.63;;;;;;;12.66;50.94;97635.28;10491997;28;20264;-72
2022/11/17 02:08:15;;;;;;;3.87;2.57;;;;;;;12.96;50.89;97607.16;10488478;28;20242;-73
2022/11/17 02:13:17;;;;;;;3.73;2.30;;;;;;;13.04;50.40;97601.31;10495891;28;20787;-74
2022/11/17 02:18:19;;;;;;;2.43;2.23;;;;;;;12.57;50.65;97628.72;10490628;28;20617;-73
2022/11/17 02:23:35;;;;;;;2.97;2.63;;;;;;;13.32;49.98;97588.72;10491028;28;20258;-72
2022/11/17 02:28:52;;;;;;;3.03;2.33;;;;;;;12.43;52.07;97650.53;10496863;28;20226;-72
2022/11/17 02:34:31;;;;;;;4.80;2.57;;;;;;;11.53;52.85;97657.75;10488661;28;20284;-72
2022/11/17 02:39:50;;;;;;;3.20;2.90;;;;;;;12.77;52.26;97617.41;10486071;28;20254;-73
2022/11/17 02:45:01;;;;;;;3.77;2.30;;;;;;;10.53;54.79;97580.47;10487799;28;20248;-72
2022/11/17 02:50:09;;;;;;;2.30;2.20;;;;;;;10.30;54.41;97594.72;10492351;28;20235;-74
2022/11/17 02:55:11;;;;;;;2.67;2.37;;;;;;;11.98;52.23;97579.97;10491192;28;20273;-73
2022/11/17 03:00:15;;;;;;;2.63;2.43;;;;;;;12.00;50.92;97626.09;10484389;28;20325;-73
2022/11/17 03:05:32;;;;;;;3.23;2.20;;;;;;;11.83;51.82;97648.59;10484671;28;20235;-73
2022/11/17 03:10:39;;;;;;;2.73;2.53;;;;;;;12.42;51.71;97589.91;10477160;28;20798;-73
2022/11/17 03:15:54;;;;;;;2.47;2.27;;;;;;;11.10;53.92;97641.22;10489180;28;20235;-72
2022/11/17 03:21:20;;;;;;;4.20;2.93;;;;;;;10.87;55.66;97647.50;10486763;28;20227;-73
2022/11/17 03:26:34;;;;;;;4.40;2.73;;;;;;;11.52;54.65;97643.53;10490529;28;20251;-73
2022/11/17 03:31:38;;;;;;;5.27;3.73;;;;;;;11.55;54.23;97610.13;10488723;28;20235;-73
2022/11/17 03:36:45;;;;;;;3.40;3.10;;;;;;;10.94;56.18;97589.28;10481162;28;20235;-73
2022/11/17 03:41:50;;;;;;;2.80;2.60;;;;;;;8.94;59.20;97499.50;10489706;28;20588;-74
2022/11/17 03:46:54;;;;;;;4.67;2.80;;;;;;;8.87;60.01;97510.28;10481966;28;20239;-73
2022/11/17 03:51:56;;;;;;;3.43;3.13;;;;;;;9.50;58.64;97540.03;10503363;28;20234;-72
2022/11/17 03:57:07;;;;;;;2.83;2.63;;;;;;;10.06;57.85;97541.31;10496916;28;20304;-73
2022/11/17 04:02:17;;;;;;;3.93;2.57;;;;;;;9.26;60.03;97541.91;10497860;28;20235;-73
2022/11/17 04:07:18;;;;;;;3.63;3.00;;;;;;;9.86;58.89;97531.00;10484059;28;20235;-73
2022/11/17 04:17:40;;;;;;;5.10;3.20;;;;;;;8.36;61.84;97525.72;10485488;28;20242;-73
2022/11/17 04:22:42;;;;;;;5.47;2.80;;;;;;;9.36;60.77;97510.09;10494942;28;20284;-72
2022/11/17 04:33:03;;;;;;;4.80;2.50;;;;;;;9.06;60.99;97512.88;10490374;28;20228;-72
2022/11/17 04:38:05;;;;;;;3.23;2.50;;;;;;;9.26;60.70;97510.69;10492489;28;20235;-71
2022/11/17 04:43:07;;;;;;;3.50;2.50;;;;;;;8.71;61.72;97519.72;10497984;28;20242;-73
2022/11/17 04:48:08;;;;;;;4.43;2.50;;;;;;;9.05;61.69;97512.06;10489391;28;20238;-75
2022/11/17 04:53:10;;;;;;;3.77;2.30;;;;;;;9.90;60.72;97444.00;10490785;28;21009;-73
2022/11/17 04:58:12;;;;;;;2.33;2.13;;;;;;;9.63;60.81;97485.59;10485052;28;20254;-73
2022/11/17 05:05:10;;;;;;;2.53;2.33;;;;;;;7.94;66.41;97501.66;10550875;27;20377;-74
2022/11/17 05:10:13;;;;;;;2.20;2.00;;;;;;;9.23;64.01;97457.78;10474791;28;20305;-73
2022/11/17 05:17:03;;;;;;;3.70;2.07;;;;;;;9.12;64.28;97456.72;10423843;28;20858;-71
2022/11/17 05:20:37;;;;;;;2.30;2.10;;;;;;;10.05;62.07;97423.97;10423926;28;20231;-72
2022/11/17 05:25:38;;;;;;;2.10;2.00;;;;;;;10.32;60.91;97454.41;10423537;28;20232;-74
2022/11/17 05:30:41;;;;;;;2.67;2.20;;;;;;;10.25;61.15;97493.84;10425815;28;20238;-73
2022/11/17 05:35:42;;;;;;;2.20;2.10;;;;;;;10.24;60.69;97521.63;10428450;28;20317;-76
2022/11/17 05:40:44;;;;;;;3.43;2.23;;;;;;;9.74;61.87;97554.22;10423933;28;20236;-72
2022/11/17 05:45:46;;;;;;;2.00;1.90;;;;;;;10.22;61.24;97510.34;10429083;28;20235;-74
2022/11/17 05:50:52;;;;;;;2.30;2.20;;;;;;;9.10;62.16;97565.53;10418455;28;20227;-73
2022/11/17 05:56:20;;;;;;;3.97;2.17;;;;;;;9.04;64.11;97531.75;10425088;28;20224;-74
2022/11/17 06:01:22;;;;;;;2.40;2.30;;;;;;;9.37;62.20;97533.91;10418783;28;20294;-73
2022/11/17 06:06:24;;;;;;;2.27;1.77;;;;;;;9.32;61.94;97552.47;10424756;28;20285;-74
2022/11/17 06:11:25;;;;;;;6.97;2.30;;;;;;;9.75;61.07;97545.16;10431067;28;20263;-74
2022/11/17 06:16:31;;;;;;;3.27;1.70;;;;;;;10.12;60.64;97512.81;10403668;28;20244;-72
2022/11/17 06:21:34;;;;;;;2.67;2.20;;;;;;;9.70;61.78;97534.34;10382767;28;20729;-73
2022/11/17 06:26:56;;;;;;;4.57;2.80;;;;;;;8.96;62.63;97591.63;10393336;28;20572;-72
2022/11/17 06:31:58;;;;;;;3.20;2.50;;;;;;;10.63;59.33;97523.69;10394070;28;20607;-73
2022/11/17 06:36:59;;;;;;;3.93;2.33;;;;;;;10.97;58.23;97531.81;10385624;28;20783;-73
2022/11/17 06:42:01;;;;;;;3.77;1.77;;;;;;;10.52;59.11;97565.47;10389065;28;20303;-73
2022/11/17 06:47:03;;;;;;;3.97;2.00;;;;;;;9.29;61.20;97610.84;10392803;28;20228;-73
2022/11/17 06:52:04;;;;;;;2.40;2.00;;;;;;;10.12;60.83;97556.41;10384065;28;20269;-72
2022/11/17 06:57:06;;;;;;;3.17;2.23;;;;;;;10.25;59.93;97565.22;10384650;28;20728;-73
2022/11/17 07:02:08;;;;;;;2.87;2.00;;;;;;;10.64;59.30;97552.06;10377568;28;20228;-73
2022/11/17 07:07:11;;;;;;;2.47;2.00;;;;;;;9.83;61.05;97619.63;10395926;28;20244;-73
2022/11/17 07:12:14;;;;;;;3.83;2.13;;;;;;;9.82;61.29;97625.16;10396410;28;20220;-72
2022/11/17 07:17:16;;;;;;;1.97;1.87;;;;;;;10.48;60.11;97580.38;10378547;28;20233;-72
2022/11/17 07:22:18;;;;;;;2.17;1.90;;;;;;;10.10;60.31;97627.16;10381904;28;20240;-72
2022/11/17 07:27:19;;;;;;;6.60;2.00;;;;;;;11.18;57.95;97614.06;10395201;28;20233;-73
2022/11/17 07:32:21;;;;;;;3.60;1.87;;;;;;;10.05;58.75;97670.59;10397921;28;20224;-72
2022/11/17 07:37:23;;;;;;;2.50;2.00;;;;;;;10.55;57.61;97655.94;10395661;28;20228;-72
2022/11/17 07:42:25;;;;;;;5.43;2.03;;;;;;;10.61;58.02;97659.50;10384827;28;20232;-73
2022/11/17 07:47:26;;;;;;;7.87;2.00;;;;;;;10.42;58.35;97662.34;10392412;28;20247;-72
2022/11/17 07:52:28;;;;;;;1.67;1.57;;;;;;;10.02;59.50;97683.63;10379569;28;20234;-72
2022/11/17 07:57:30;;;;;;;3.07;2.00;;;;;;;10.52;58.92;97688.47;10388858;28;20775;-73
2022/11/17 08:02:31;;;;;;;4.37;2.33;;;;;;;9.77;58.99;97692.66;10390875;28;20239;-73
2022/11/17 08:07:33;;;;;;;4.40;2.40;;;;;;;10.76;57.83;97651.00;10395247;28;20243;-74
2022/11/17 08:12:35;;;;;;;2.20;1.93;;;;;;;10.63;56.91;97682.31;10394149;28;20890;-72
2022/11/17 08:17:36;;;;;;;4.53;1.90;;;;;;;11.25;55.69;97684.34;10391090;28;20248;-71
2022/11/17 08:22:38;;;;;;;2.03;1.90;;;;;;;11.33;55.29;97703.75;10390013;28;20350;-74
2022/11/17 08:27:40;;;;;;;4.47;1.93;;;;;;;11.22;56.57;97706.22;10319679;28;20882;-71
2022/11/17 08:32:46;;;;;;;2.23;1.70;;;;;;;10.97;57.73;97732.50;10380661;28;20243;-71
2022/11/17 08:37:48;;;;;;;2.77;1.53;;;;;;;11.31;58.14;97711.22;10386239;28;20232;-71
2022/11/17 08:43:13;;;;;;;3.20;2.30;;;;;;;11.37;58.37;97689.63;10385106;28;20232;-74
2022/11/17 08:48:39;;;;;;;4.43;1.90;;;;;;;11.85;56.44;97682.16;10389068;28;20224;-71
2022/11/17 08:54:05;;;;;;;4.23;2.23;;;;;;;11.38;57.25;97709.19;10386248;28;20232;-74
2022/11/17 08:59:31;;;;;;;5.33;2.00;;;;;;;11.15;57.19;97751.03;10402125;22;20243;-69
2022/11/17 09:04:56;;;;;;;5.00;2.30;;;;;;;11.59;57.25;97702.31;10323025;28;20728;-70
2022/11/17 09:10:23;;;;;;;5.83;2.60;;;;;;;11.91;55.91;97686.53;10365705;28;20242;-69
2022/11/17 09:15:59;;;;;;;3.80;2.53;;;;;;;13.48;52.06;97739.06;10354887;28;20225;-70
2022/11/17 09:21:26;;;;;;;3.33;2.07;;;;;;;12.97;52.11;97716.16;10222247;28;20225;-69
2022/11/17 09:26:53;;;;;;;5.63;2.43;;;;;;;12.69;52.69;97742.13;10338289;28;20234;-71
2022/11/17 09:32:19;;;;;;;4.73;1.80;;;;;;;11.33;53.64;97784.06;10347902;28;20308;-69
2022/11/17 09:37:45;;;;;;;5.57;2.10;;;;;;;12.94;51.86;97763.13;10347606;28;20701;-69
2022/11/17 09:43:24;;;;;;;2.73;1.87;;;;;;;11.51;54.83;97799.16;10346882;28;20694;-69
2022/11/17 09:48:57;;;;;;;4.27;1.80;;;;;;;11.94;53.32;97771.81;10359281;28;20250;-69
2022/11/17 09:54:47;;;;;;;4.33;1.90;;;;;;;13.06;52.60;97749.56;10362483;28;20283;-69
2022/11/17 10:00:21;;;;;;;3.23;1.97;;;;;;;12.67;51.98;97763.84;10317246;28;20225;-68
2022/11/17 10:05:48;;;;;;;2.90;1.90;;;;;;;12.62;51.88;97779.03;10357258;28;20238;-69
2022/11/17 10:11:31;;;;;;;5.10;2.20;;;;;;;12.37;51.34;97794.50;10357049;28;20248;-71
2022/11/17 10:16:57;;;;;;;3.30;2.00;;;;;;;11.99;52.85;97825.50;10358697;28;20221;-70
2022/11/17 10:22:35;;;;;;;6.67;2.80;;;;;;;12.37;53.56;97821.31;10361166;28;20627;-69
2022/11/17 10:28:01;;;;;;;4.77;2.40;;;;;;;11.96;55.58;97830.53;10351030;28;20713;-70
2022/11/17 10:33:33;;;;;;;5.83;2.70;;;;;;;13.12;52.88;97772.72;10358516;28;20706;-72
2022/11/17 10:38:59;;;;;;;7.77;3.13;;;;;;;13.05;52.56;97777.47;10358678;28;20674;-72
2022/11/17 10:44:29;;;;;;;6.77;2.90;;;;;;;13.38;51.93;97765.81;10365136;28;20236;-72
2022/11/17 10:50:18;;;;;;;8.03;3.53;;;;;;;13.05;50.56;97762.16;10318350;28;20226;-72
2022/11/17 10:56:33;;;;;;;8.40;2.73;;;;;;;12.86;51.34;97788.50;10300163;28;20266;-71
2022/11/17 15:26:00;;;;;;;10.30;3.27;;;;;;;12.22;53.51;97839.03;10389552;28;20241;-34
2022/11/17 15:31:19;;;;;;;13.20;4.00;;;;;;;11.82;53.69;97816.63;10367193;28;20229;-34
2022/11/17 15:36:27;;;;;;;8.43;3.20;;;;;;;12.51;52.67;97795.00;10342134;28;20221;-34
2022/11/17 15:41:35;;;;;;;7.87;3.10;;;;;;;12.41;54.24;97788.63;10348147;28;20233;-34
2022/11/17 15:46:44;;;;;;;11.60;3.70;;;;;;;12.80;54.10;97791.38;10346199;28;20216;-33
2022/11/17 15:51:52;;;;;;;9.63;3.43;;;;;;;14.26;51.11;97723.59;10359712;28;20228;-34
2022/11/17 15:57:01;;;;;;;11.83;3.80;;;;;;;14.16;51.26;97718.97;10361580;28;20216;-34
2022/11/17 16:02:09;;;;;;;7.57;3.33;;;;;;;15.54;48.92;97689.13;10357967;28;20260;-34
2022/11/17 16:07:17;;;;;;;17.10;9.40;;;;;;;15.33;49.57;97696.34;10354508;28;20218;-34
2022/11/17 16:12:25;;;;;;;9.47;5.00;;;;;;;15.45;48.82;97699.63;10359496;28;20226;-34
2022/11/17 16:17:33;;;;;;;11.07;4.37;;;;;;;14.94;49.29;97718.31;10363043;28;20209;-35
2022/11/17 16:22:41;;;;;;;15.53;7.10;;;;;;;15.69;48.94;97699.94;10362018;28;20233;-34
2022/11/17 16:27:49;;;;;;;8.13;4.20;;;;;;;15.72;48.83;97695.88;10354468;28;20304;-34
2022/11/17 16:32:57;;;;;;;10.27;3.77;;;;;;;15.59;48.80;97686.47;10353308;28;20320;-36
2022/11/17 16:38:06;;;;;;;11.50;3.33;;;;;;;15.21;49.84;97701.97;10352253;28;20209;-34
2022/11/17 16:43:14;;;;;;;14.03;4.10;;;;;;;13.92;51.73;97762.31;10347623;28;20230;-35
2022/11/17 16:48:22;;;;;;;9.43;4.10;;;;;;;15.11;50.72;97689.28;10345043;28;20697;-38
2022/11/17 16:53:31;;;;;;;11.57;4.27;;;;;;;12.87;54.44;97784.78;10344217;28;20241;-35
2022/11/17 16:58:39;;;;;;;13.10;4.27;;;;;;;12.63;54.85;97762.69;10346779;28;20209;-34
2022/11/17 17:03:47;;;;;;;19.60;5.00;;;;;;;11.80;57.42;97784.69;10348127;28;20229;-34
2022/11/17 17:09:01;;;;;;;11.53;4.30;;;;;;;12.48;57.71;97717.69;10345478;28;20240;-34
2022/11/17 17:14:12;;;;;;;9.17;3.93;;;;;;;10.66;59.33;97731.81;10348824;28;20828;-36
2022/11/17 17:19:20;;;;;;;15.93;5.83;;;;;;;13.25;53.56;97702.50;10352248;28;20233;-35
2022/11/17 17:24:29;;;;;;;14.77;6.00;;;;;;;14.70;50.88;97650.63;10347456;28;20818;-35
2022/11/17 17:29:37;;;;;;;12.07;6.40;;;;;;;13.76;52.28;97726.41;10357241;28;20600;-35
2022/11/17 17:34:45;;;;;;;11.07;6.00;;;;;;;15.37;49.37;97686.66;10342392;28;20209;-35
2022/11/17 17:39:53;;;;;;;12.63;5.77;;;;;;;15.34;49.18;97679.13;10347344;28;20612;-34
2022/11/17 17:45:01;;;;;;;12.77;5.20;;;;;;;14.54;50.81;97739.38;10346073;28;20218;-34
2022/11/17 17:50:09;;;;;;;11.00;4.70;;;;;;;15.17;49.46;97694.69;10340627;28;20236;-35
2022/11/17 17:55:17;;;;;;;15.27;4.60;;;;;;;13.49;53.11;97798.97;10337031;28;20774;-36
2022/11/17 18:00:25;;;;;;;30.77;17.10;;;;;;;12.90;55.18;97824.53;10347664;28;20626;-34
2022/11/17 18:05:33;;;;;;;25.67;15.93;;;;;;;13.88;52.82;97712.78;10347778;28;20722;-35
2022/11/17 18:10:41;;;;;;;13.03;5.50;;;;;;;15.56;49.67;97694.28;10352137;28;20719;-35
2022/11/17 18:15:49;;;;;;;10.97;4.37;;;;;;;15.77;49.36;97703.97;10350771;28;20240;-36
2022/11/17 18:21:05;;;;;;;12.87;5.70;;;;;;;13.52;53.12;97800.34;10339832;28;20226;-33
2022/11/17 18:26:19;;;;;;;9.97;5.63;;;;;;;14.50;52.69;97727.50;10335772;28;20234;-35
2022/11/17 18:31:29;;;;;;;10.77;7.13;;;;;;;15.07;50.07;97687.41;10335286;28;20230;-35
2022/11/17 18:36:38;;;;;;;10.23;3.70;;;;;;;14.47;50.81;97752.25;10336847;28;20201;-33
2022/11/17 18:41:46;;;;;;;14.23;9.00;;;;;;;13.18;54.30;97857.66;10339611;28;20236;-33
2022/11/17 18:46:54;;;;;;;18.67;11.33;;;;;;;13.39;54.99;97762.03;10344624;28;20209;-37
2022/11/17 18:52:04;;;;;;;10.83;4.67;;;;;;;12.32;56.43;97829.28;10352246;28;20244;-33
2022/11/17 18:57:12;;;;;;;8.20;4.00;;;;;;;11.58;57.34;97797.94;10344507;28;20217;-37
2022/11/17 19:02:21;;;;;;;5.20;2.73;;;;;;;10.94;57.32;97819.41;10348201;28;20493;-37
2022/11/17 19:07:30;;;;;;;6.53;3.13;;;;;;;10.96;57.03;97805.81;10347290;28;20220;-35
2022/11/17 19:12:38;;;;;;;2.57;2.10;;;;;;;10.93;56.96;97793.69;10349238;28;20429;-36
2022/11/17 19:17:47;;;;;;;4.07;2.70;;;;;;;9.54;59.96;97801.03;10350242;28;20209;-35
2022/11/17 19:22:55;;;;;;;5.37;2.33;;;;;;;10.02;59.32;97822.56;10347482;28;20240;-45
2022/11/17 19:28:05;;;;;;;5.23;2.37;;;;;;;10.08;59.20;97789.59;10357693;28;20217;-44
2022/11/17 19:33:14;;;;;;;3.70;2.07;;;;;;;9.61;59.71;97814.28;10356717;28;20232;-43
2022/11/17 19:38:22;;;;;;;2.30;2.10;;;;;;;9.94;58.78;97826.41;10356499;28;20201;-45
2022/11/17 19:43:31;;;;;;;2.10;1.80;;;;;;;10.18;59.09;97816.56;10356901;28;20329;-44
2022/11/17 19:48:46;;;;;;;2.00;1.90;;;;;;;10.47;57.49;97806.03;10359517;28;20209;-44
2022/11/17 19:53:57;;;;;;;2.07;1.87;;;;;;;9.62;60.09;97836.44;10351751;28;20643;-43
2022/11/17 19:59:05;;;;;;;3.00;2.70;;;;;;;10.07;58.69;97817.34;10349842;28;20234;-44
2022/11/17 20:04:17;;;;;;;2.50;2.30;;;;;;;11.22;56.97;97721.47;10355597;28;20279;-43
2022/11/17 20:09:25;;;;;;;3.07;2.10;;;;;;;8.95;61.17;97830.06;10337124;28;20230;-43
2022/11/17 20:14:34;;;;;;;2.57;2.07;;;;;;;10.09;58.73;97876.72;10331102;28;20228;-44
2022/11/17 20:19:42;;;;;;;4.47;2.53;;;;;;;10.84;57.18;97795.91;10346200;28;20232;-44
2022/11/17 20:24:50;;;;;;;1.87;1.70;;;;;;;10.10;59.55;97843.63;10347793;28;20706;-41
2022/11/17 20:30:04;;;;;;;3.33;1.90;;;;;;;9.05;60.50;97872.22;10361809;28;22651;-45
2022/11/17 20:35:15;;;;;;;4.03;1.73;;;;;;;9.11;60.99;97874.03;10353939;28;20233;-44
2022/11/17 20:40:23;;;;;;;2.70;1.90;;;;;;;11.02;57.49;97775.44;10353723;28;20225;-44
2022/11/17 20:45:31;;;;;;;1.90;1.80;;;;;;;10.44;57.02;97874.13;10356835;28;20260;-44
2022/11/17 20:50:39;;;;;;;2.47;1.90;;;;;;;11.19;57.80;97783.53;10346075;28;20233;-43
2022/11/17 20:55:47;;;;;;;3.50;2.43;;;;;;;11.09;55.60;97853.72;10340819;28;20212;-45
2022/11/17 21:01:08;;;;;;;5.03;2.93;;;;;;;9.78;58.62;97927.44;10342046;28;20611;-44
2022/11/17 21:06:18;;;;;;;2.47;2.30;;;;;;;11.81;55.21;97807.78;10336738;28;20233;-46
2022/11/17 21:16:56;;;;;;;3.73;2.70;;;;;;;10.56;56.60;97961.59;10334438;28;20609;-44
2022/11/17 21:22:04;;;;;;;3.37;3.07;;;;;;;9.51;59.24;97953.66;10355444;23;20237;-70
2022/11/17 21:27:06;;;;;;;5.87;3.87;;;;;;;9.46;59.37;97964.19;10326598;28;20229;-73
2022/11/17 21:32:08;;;;;;;4.67;3.47;;;;;;;11.19;56.45;97871.88;10355753;28;20606;-72
2022/11/17 21:37:09;;;;;;;10.80;5.93;;;;;;;10.79;56.70;97910.06;10354041;28;20723;-73
2022/11/17 21:42:11;;;;;;;7.60;4.83;;;;;;;11.11;56.19;97933.81;10353390;28;20232;-68
2022/11/17 21:47:12;;;;;;;3.50;2.60;;;;;;;10.84;56.83;97985.88;10342084;28;20233;-71
2022/11/17 21:52:14;;;;;;;5.23;2.70;;;;;;;11.00;56.14;97957.66;10351182;28;20236;-71
2022/11/17 21:57:16;;;;;;;3.20;2.90;;;;;;;10.24;57.36;97970.69;10354479;28;20228;-71
2022/11/17 22:02:17;;;;;;;2.87;2.63;;;;;;;10.96;55.71;97993.94;10337140;28;20701;-70
2022/11/17 22:07:19;;;;;;;2.77;2.40;;;;;;;11.82;54.87;97899.69;10345890;28;20229;-71
2022/11/17 22:12:21;;;;;;;3.70;2.10;;;;;;;11.19;55.81;97974.41;10349845;28;21011;-68
2022/11/17 22:17:22;;;;;;;2.47;2.10;;;;;;;11.85;55.34;97882.34;10346469;28;20236;-68
2022/11/17 22:22:25;;;;;;;3.07;2.33;;;;;;;11.62;54.81;97910.78;10349512;28;20241;-67
2022/11/17 22:27:27;;;;;;;5.27;2.67;;;;;;;9.80;58.49;97972.63;10352924;28;20229;-70
2022/11/17 22:32:28;;;;;;;3.63;2.33;;;;;;;11.09;56.29;97934.03;10351508;28;20233;-69
2022/11/17 22:37:30;;;;;;;2.83;2.63;;;;;;;9.39;59.48;97968.78;10351070;28;20734;-70
2022/11/17 22:42:31;;;;;;;3.13;2.10;;;;;;;11.09;56.09;97928.69;10353960;28;20245;-69
2022/11/17 22:47:33;;;;;;;3.67;2.67;;;;;;;10.65;57.35;97960.25;10349956;28;20240;-69
2022/11/17 22:52:35;;;;;;;3.73;2.23;;;;;;;11.60;55.10;97891.47;10350567;28;20229;-69
2022/11/17 22:57:36;;;;;;;3.00;2.63;;;;;;;11.39;55.10;97981.28;10352570;28;20646;-71
2022/11/17 23:02:38;;;;;;;4.60;2.70;;;;;;;11.86;54.47;97900.84;10349651;28;20652;-69
2022/11/17 23:07:39;;;;;;;4.27;2.27;;;;;;;11.78;54.46;97982.44;10350498;28;20232;-69
2022/11/17 23:12:41;;;;;;;3.07;2.60;;;;;;;10.73;56.69;98015.25;10350958;28;20785;-70
2022/11/17 23:17:43;;;;;;;2.63;2.20;;;;;;;10.35;58.37;98011.06;10349652;28;20240;-68
2022/11/17 23:22:44;;;;;;;2.60;2.20;;;;;;;9.78;60.27;97996.09;10350934;28;20244;-70
2022/11/17 23:27:46;;;;;;;3.33;2.10;;;;;;;10.17;59.28;97990.53;10352888;28;20229;-70
2022/11/17 23:32:48;;;;;;;2.47;2.10;;;;;;;9.01;62.17;97949.22;10351921;28;20245;-72
2022/11/17 23:37:49;;;;;;;3.53;2.17;;;;;;;10.28;59.55;97947.81;10346953;28;20607;-68
2022/11/17 23:42:52;;;;;;;2.20;2.10;;;;;;;10.59;59.80;97924.50;10346271;28;20330;-70
2022/11/17 23:47:54;;;;;;;2.77;2.00;;;;;;;11.77;56.89;97838.78;10350048;28;20241;-69
2022/11/17 23:52:55;;;;;;;2.10;2.00;;;;;;;11.50;55.78;97897.41;10345755;28;20598;-69
2022/11/17 23:57:57;;;;;;;3.37;2.30;;;;;;;12.16;54.16;97875.66;10344970;28;20213;-68
